sensor_id;sensor_type;location;lat;lon;timestamp;P1;durP1;ratioP1;P2;durP2;ratioP2
74626;SDS011;63132;52.268;5.192;2023-07-20T00:00:00;2.92;;;1.33;;
74626;SDS011;63132;52.268;5.192;2023-07-20T00:02:26;1.73;;;0.95;;
74626;SDS011;63132;52.268;5.192;2023-07-20T00:04:51;3.30;;;1.40;;
74626;SDS011;63132;52.268;5.192;2023-07-20T00:07:17;1.95;;;1.30;;
74626;SDS011;63132;52.268;5.192;2023-07-20T00:09:42;1.83;;;1.23;;
74626;SDS011;63132;52.268;5.192;2023-07-20T00:12:07;2.63;;;1.10;;
74626;SDS011;63132;52.268;5.192;2023-07-20T00:14:33;4.28;;;1.15;;
74626;SDS011;63132;52.268;5.192;2023-07-20T00:16:58;1.92;;;1.20;;
74626;SDS011;63132;52.268;5.192;2023-07-20T00:19:24;1.40;;;1.20;;
74626;SDS011;63132;52.268;5.192;2023-07-20T00:21:51;2.40;;;1.10;;
74626;SDS011;63132;52.268;5.192;2023-07-20T00:24:17;1.90;;;1.33;;
74626;SDS011;63132;52.268;5.192;2023-07-20T00:26:43;2.92;;;1.60;;
74626;SDS011;63132;52.268;5.192;2023-07-20T00:29:08;2.42;;;1.63;;
74626;SDS011;63132;52.268;5.192;2023-07-20T00:31:34;2.80;;;1.75;;
74626;SDS011;63132;52.268;5.192;2023-07-20T00:34:02;4.60;;;1.85;;
74626;SDS011;63132;52.268;5.192;2023-07-20T00:36:27;2.85;;;1.80;;
74626;SDS011;63132;52.268;5.192;2023-07-20T00:41:18;4.40;;;2.17;;
74626;SDS011;63132;52.268;5.192;2023-07-20T00:46:08;4.53;;;2.17;;
74626;SDS011;63132;52.268;5.192;2023-07-20T00:51:00;4.75;;;2.28;;
74626;SDS011;63132;52.268;5.192;2023-07-20T00:53:26;3.70;;;2.40;;
74626;SDS011;63132;52.268;5.192;2023-07-20T00:58:18;4.95;;;2.25;;
74626;SDS011;63132;52.268;5.192;2023-07-20T01:03:09;5.85;;;2.80;;
74626;SDS011;63132;52.268;5.192;2023-07-20T01:05:42;3.40;;;2.67;;
74626;SDS011;63132;52.268;5.192;2023-07-20T01:08:40;5.10;;;2.75;;
74626;SDS011;63132;52.268;5.192;2023-07-20T01:11:50;4.97;;;3.25;;
74626;SDS011;63132;52.268;5.192;2023-07-20T01:14:23;7.07;;;2.97;;
74626;SDS011;63132;52.268;5.192;2023-07-20T01:16:50;8.20;;;3.20;;
74626;SDS011;63132;52.268;5.192;2023-07-20T01:19:17;5.10;;;2.90;;
74626;SDS011;63132;52.268;5.192;2023-07-20T01:27:22;5.35;;;3.17;;
74626;SDS011;63132;52.268;5.192;2023-07-20T01:32:47;5.18;;;3.20;;
74626;SDS011;63132;52.268;5.192;2023-07-20T01:35:13;7.53;;;3.60;;
74626;SDS011;63132;52.268;5.192;2023-07-20T01:37:42;6.75;;;3.50;;
74626;SDS011;63132;52.268;5.192;2023-07-20T01:40:09;6.18;;;3.40;;
74626;SDS011;63132;52.268;5.192;2023-07-20T01:42:35;6.72;;;3.83;;
74626;SDS011;63132;52.268;5.192;2023-07-20T01:47:26;6.70;;;3.80;;
74626;SDS011;63132;52.268;5.192;2023-07-20T01:49:51;7.13;;;4.00;;
74626;SDS011;63132;52.268;5.192;2023-07-20T01:54:42;8.50;;;3.00;;
74626;SDS011;63132;52.268;5.192;2023-07-20T01:59:33;6.13;;;2.83;;
74626;SDS011;63132;52.268;5.192;2023-07-20T02:01:58;7.30;;;3.05;;
74626;SDS011;63132;52.268;5.192;2023-07-20T02:04:23;8.43;;;2.97;;
74626;SDS011;63132;52.268;5.192;2023-07-20T02:09:14;5.93;;;2.70;;
74626;SDS011;63132;52.268;5.192;2023-07-20T02:14:05;4.27;;;3.03;;
74626;SDS011;63132;52.268;5.192;2023-07-20T02:18:55;4.68;;;2.92;;
74626;SDS011;63132;52.268;5.192;2023-07-20T02:21:22;5.97;;;2.80;;
74626;SDS011;63132;52.268;5.192;2023-07-20T02:26:13;6.60;;;3.03;;
74626;SDS011;63132;52.268;5.192;2023-07-20T02:31:04;4.63;;;3.00;;
74626;SDS011;63132;52.268;5.192;2023-07-20T02:35:54;5.37;;;2.93;;
74626;SDS011;63132;52.268;5.192;2023-07-20T02:40:45;7.53;;;3.63;;
74626;SDS011;63132;52.268;5.192;2023-07-20T02:45:39;6.20;;;3.38;;
74626;SDS011;63132;52.268;5.192;2023-07-20T02:48:05;6.05;;;3.33;;
74626;SDS011;63132;52.268;5.192;2023-07-20T02:50:33;5.35;;;3.50;;
74626;SDS011;63132;52.268;5.192;2023-07-20T02:55:23;6.97;;;4.18;;
74626;SDS011;63132;52.268;5.192;2023-07-20T03:00:14;7.38;;;3.60;;
74626;SDS011;63132;52.268;5.192;2023-07-20T03:02:40;5.00;;;3.60;;
74626;SDS011;63132;52.268;5.192;2023-07-20T03:07:32;8.40;;;3.10;;
74626;SDS011;63132;52.268;5.192;2023-07-20T03:12:23;7.65;;;4.07;;
74626;SDS011;63132;52.268;5.192;2023-07-20T03:14:49;7.50;;;3.95;;
74626;SDS011;63132;52.268;5.192;2023-07-20T03:19:40;5.10;;;3.88;;
74626;SDS011;63132;52.268;5.192;2023-07-20T03:24:31;4.75;;;3.05;;
74626;SDS011;63132;52.268;5.192;2023-07-20T03:29:21;6.75;;;4.38;;
74626;SDS011;63132;52.268;5.192;2023-07-20T03:34:12;7.30;;;4.38;;
74626;SDS011;63132;52.268;5.192;2023-07-20T03:39:03;7.53;;;4.60;;
74626;SDS011;63132;52.268;5.192;2023-07-20T03:43:54;9.05;;;4.90;;
74626;SDS011;63132;52.268;5.192;2023-07-20T03:48:45;10.43;;;5.00;;
74626;SDS011;63132;52.268;5.192;2023-07-20T03:53:35;7.22;;;4.55;;
74626;SDS011;63132;52.268;5.192;2023-07-20T03:58:26;9.55;;;5.07;;
74626;SDS011;63132;52.268;5.192;2023-07-20T04:03:17;7.75;;;4.72;;
74626;SDS011;63132;52.268;5.192;2023-07-20T04:05:44;7.40;;;4.68;;
74626;SDS011;63132;52.268;5.192;2023-07-20T04:10:36;7.75;;;4.45;;
74626;SDS011;63132;52.268;5.192;2023-07-20T04:15:27;9.88;;;4.80;;
74626;SDS011;63132;52.268;5.192;2023-07-20T04:20:17;6.82;;;4.82;;
74626;SDS011;63132;52.268;5.192;2023-07-20T04:25:08;5.90;;;4.20;;
74626;SDS011;63132;52.268;5.192;2023-07-20T04:27:34;7.10;;;5.00;;
74626;SDS011;63132;52.268;5.192;2023-07-20T04:32:25;7.72;;;4.35;;
74626;SDS011;63132;52.268;5.192;2023-07-20T04:37:16;7.07;;;4.38;;
74626;SDS011;63132;52.268;5.192;2023-07-20T04:42:07;7.07;;;5.22;;
74626;SDS011;63132;52.268;5.192;2023-07-20T04:46:57;7.47;;;4.82;;
74626;SDS011;63132;52.268;5.192;2023-07-20T04:51:48;8.63;;;4.32;;
74626;SDS011;63132;52.268;5.192;2023-07-20T04:56:38;9.00;;;5.57;;
74626;SDS011;63132;52.268;5.192;2023-07-20T05:01:29;7.28;;;5.32;;
74626;SDS011;63132;52.268;5.192;2023-07-20T05:06:20;8.35;;;4.15;;
74626;SDS011;63132;52.268;5.192;2023-07-20T05:11:10;8.10;;;4.75;;
74626;SDS011;63132;52.268;5.192;2023-07-20T05:13:37;9.07;;;4.75;;
74626;SDS011;63132;52.268;5.192;2023-07-20T05:18:28;10.32;;;5.28;;
74626;SDS011;63132;52.268;5.192;2023-07-20T05:23:20;7.55;;;4.85;;
74626;SDS011;63132;52.268;5.192;2023-07-20T05:28:11;8.68;;;4.82;;
74626;SDS011;63132;52.268;5.192;2023-07-20T05:33:02;8.23;;;4.47;;
74626;SDS011;63132;52.268;5.192;2023-07-20T05:37:52;8.40;;;3.63;;
74626;SDS011;63132;52.268;5.192;2023-07-20T05:42:47;7.07;;;3.63;;
74626;SDS011;63132;52.268;5.192;2023-07-20T05:45:14;8.15;;;3.40;;
74626;SDS011;63132;52.268;5.192;2023-07-20T05:47:41;6.68;;;2.88;;
74626;SDS011;63132;52.268;5.192;2023-07-20T05:50:06;8.50;;;2.75;;
74626;SDS011;63132;52.268;5.192;2023-07-20T05:54:57;6.20;;;2.50;;
74626;SDS011;63132;52.268;5.192;2023-07-20T05:59:48;4.35;;;2.00;;
74626;SDS011;63132;52.268;5.192;2023-07-20T06:02:13;4.10;;;2.03;;
74626;SDS011;63132;52.268;5.192;2023-07-20T06:07:05;2.38;;;1.40;;
74626;SDS011;63132;52.268;5.192;2023-07-20T06:09:32;3.10;;;1.50;;
74626;SDS011;63132;52.268;5.192;2023-07-20T06:11:58;1.67;;;1.15;;
74626;SDS011;63132;52.268;5.192;2023-07-20T06:14:23;6.43;;;1.75;;
74626;SDS011;63132;52.268;5.192;2023-07-20T06:16:48;1.83;;;1.13;;
74626;SDS011;63132;52.268;5.192;2023-07-20T06:21:39;2.42;;;1.13;;
74626;SDS011;63132;52.268;5.192;2023-07-20T06:24:04;3.00;;;1.05;;
74626;SDS011;63132;52.268;5.192;2023-07-20T06:28:56;1.67;;;0.88;;
74626;SDS011;63132;52.268;5.192;2023-07-20T06:31:21;1.10;;;0.75;;
74626;SDS011;63132;52.268;5.192;2023-07-20T06:33:47;2.15;;;1.15;;
74626;SDS011;63132;52.268;5.192;2023-07-20T06:36:12;3.50;;;0.90;;
74626;SDS011;63132;52.268;5.192;2023-07-20T06:38:37;1.60;;;0.95;;
74626;SDS011;63132;52.268;5.192;2023-07-20T06:41:03;1.52;;;0.70;;
74626;SDS011;63132;52.268;5.192;2023-07-20T06:43:29;1.85;;;0.80;;
74626;SDS011;63132;52.268;5.192;2023-07-20T06:45:54;4.07;;;0.95;;
74626;SDS011;63132;52.268;5.192;2023-07-20T06:48:20;1.92;;;0.98;;
74626;SDS011;63132;52.268;5.192;2023-07-20T06:50:46;4.28;;;0.88;;
74626;SDS011;63132;52.268;5.192;2023-07-20T06:53:11;2.05;;;0.95;;
74626;SDS011;63132;52.268;5.192;2023-07-20T06:55:36;2.83;;;0.80;;
74626;SDS011;63132;52.268;5.192;2023-07-20T06:58:02;2.83;;;0.73;;
74626;SDS011;63132;52.268;5.192;2023-07-20T07:00:28;2.85;;;0.80;;
74626;SDS011;63132;52.268;5.192;2023-07-20T07:02:53;0.88;;;0.80;;
74626;SDS011;63132;52.268;5.192;2023-07-20T07:05:19;2.67;;;0.90;;
74626;SDS011;63132;52.268;5.192;2023-07-20T07:07:44;1.75;;;0.50;;
74626;SDS011;63132;52.268;5.192;2023-07-20T07:10:09;1.65;;;0.60;;
74626;SDS011;63132;52.268;5.192;2023-07-20T07:12:35;2.25;;;0.77;;
74626;SDS011;63132;52.268;5.192;2023-07-20T07:15:01;0.68;;;0.50;;
74626;SDS011;63132;52.268;5.192;2023-07-20T07:17:31;2.00;;;0.68;;
74626;SDS011;63132;52.268;5.192;2023-07-20T07:19:57;0.90;;;0.45;;
74626;SDS011;63132;52.268;5.192;2023-07-20T07:22:23;0.60;;;0.60;;
74626;SDS011;63132;52.268;5.192;2023-07-20T07:24:48;2.13;;;0.70;;
74626;SDS011;63132;52.268;5.192;2023-07-20T07:27:14;2.50;;;0.93;;
74626;SDS011;63132;52.268;5.192;2023-07-20T07:29:41;2.03;;;0.70;;
74626;SDS011;63132;52.268;5.192;2023-07-20T07:32:09;1.65;;;0.73;;
74626;SDS011;63132;52.268;5.192;2023-07-20T07:34:35;1.50;;;0.60;;
74626;SDS011;63132;52.268;5.192;2023-07-20T07:37:00;2.30;;;0.70;;
74626;SDS011;63132;52.268;5.192;2023-07-20T07:39:26;1.02;;;0.50;;
74626;SDS011;63132;52.268;5.192;2023-07-20T07:41:51;3.50;;;0.68;;
74626;SDS011;63132;52.268;5.192;2023-07-20T07:44:17;4.03;;;0.77;;
74626;SDS011;63132;52.268;5.192;2023-07-20T07:46:43;5.88;;;0.82;;
74626;SDS011;63132;52.268;5.192;2023-07-20T07:49:08;2.58;;;0.93;;
74626;SDS011;63132;52.268;5.192;2023-07-20T07:51:34;2.28;;;0.52;;
74626;SDS011;63132;52.268;5.192;2023-07-20T07:53:59;2.60;;;0.70;;
74626;SDS011;63132;52.268;5.192;2023-07-20T07:56:24;3.63;;;0.40;;
74626;SDS011;63132;52.268;5.192;2023-07-20T07:58:50;1.45;;;0.60;;
74626;SDS011;63132;52.268;5.192;2023-07-20T08:01:17;2.08;;;0.60;;
74626;SDS011;63132;52.268;5.192;2023-07-20T08:03:44;0.85;;;0.65;;
74626;SDS011;63132;52.268;5.192;2023-07-20T08:06:12;1.55;;;0.40;;
74626;SDS011;63132;52.268;5.192;2023-07-20T08:08:37;0.28;;;0.28;;
74626;SDS011;63132;52.268;5.192;2023-07-20T08:11:03;1.10;;;0.60;;
74626;SDS011;63132;52.268;5.192;2023-07-20T08:13:29;0.88;;;0.55;;
74626;SDS011;63132;52.268;5.192;2023-07-20T08:15:55;2.17;;;0.50;;
74626;SDS011;63132;52.268;5.192;2023-07-20T08:18:20;1.50;;;0.50;;
74626;SDS011;63132;52.268;5.192;2023-07-20T08:20:46;2.72;;;0.65;;
74626;SDS011;63132;52.268;5.192;2023-07-20T08:23:12;3.05;;;0.70;;
74626;SDS011;63132;52.268;5.192;2023-07-20T08:25:38;2.97;;;0.75;;
74626;SDS011;63132;52.268;5.192;2023-07-20T08:28:08;3.13;;;0.80;;
74626;SDS011;63132;52.268;5.192;2023-07-20T08:30:46;2.10;;;0.52;;
74626;SDS011;63132;52.268;5.192;2023-07-20T08:33:13;1.95;;;0.68;;
74626;SDS011;63132;52.268;5.192;2023-07-20T08:35:39;3.15;;;0.65;;
74626;SDS011;63132;52.268;5.192;2023-07-20T08:38:05;2.15;;;0.60;;
74626;SDS011;63132;52.268;5.192;2023-07-20T08:40:32;2.10;;;0.80;;
74626;SDS011;63132;52.268;5.192;2023-07-20T08:42:59;2.53;;;0.50;;
74626;SDS011;63132;52.268;5.192;2023-07-20T08:45:27;3.35;;;0.82;;
74626;SDS011;63132;52.268;5.192;2023-07-20T08:47:57;0.68;;;0.50;;
74626;SDS011;63132;52.268;5.192;2023-07-20T08:50:25;4.00;;;0.52;;
74626;SDS011;63132;52.268;5.192;2023-07-20T08:52:51;3.03;;;0.63;;
74626;SDS011;63132;52.268;5.192;2023-07-20T08:55:18;1.00;;;0.45;;
74626;SDS011;63132;52.268;5.192;2023-07-20T08:57:47;5.53;;;0.50;;
74626;SDS011;63132;52.268;5.192;2023-07-20T09:00:15;2.95;;;0.73;;
74626;SDS011;63132;52.268;5.192;2023-07-20T09:02:42;0.55;;;0.38;;
74626;SDS011;63132;52.268;5.192;2023-07-20T09:05:10;4.78;;;1.42;;
74626;SDS011;63132;52.268;5.192;2023-07-20T09:07:35;0.50;;;0.50;;
74626;SDS011;63132;52.268;5.192;2023-07-20T09:10:01;3.97;;;1.15;;
74626;SDS011;63132;52.268;5.192;2023-07-20T09:12:31;1.27;;;0.30;;
74626;SDS011;63132;52.268;5.192;2023-07-20T09:14:59;0.52;;;0.40;;
74626;SDS011;63132;52.268;5.192;2023-07-20T09:17:26;0.82;;;0.30;;
74626;SDS011;63132;52.268;5.192;2023-07-20T09:19:51;1.40;;;0.50;;
74626;SDS011;63132;52.268;5.192;2023-07-20T09:22:16;0.98;;;0.30;;
74626;SDS011;63132;52.268;5.192;2023-07-20T09:24:42;0.65;;;0.50;;
74626;SDS011;63132;52.268;5.192;2023-07-20T09:27:08;1.38;;;0.40;;
74626;SDS011;63132;52.268;5.192;2023-07-20T09:29:34;1.05;;;0.40;;
74626;SDS011;63132;52.268;5.192;2023-07-20T09:32:12;0.25;;;0.25;;
74626;SDS011;63132;52.268;5.192;2023-07-20T09:34:37;0.98;;;0.43;;
74626;SDS011;63132;52.268;5.192;2023-07-20T09:37:02;2.70;;;0.40;;
74626;SDS011;63132;52.268;5.192;2023-07-20T09:39:28;0.43;;;0.30;;
74626;SDS011;63132;52.268;5.192;2023-07-20T09:41:54;1.48;;;0.75;;
74626;SDS011;63132;52.268;5.192;2023-07-20T09:44:21;3.90;;;0.50;;
74626;SDS011;63132;52.268;5.192;2023-07-20T09:46:47;1.85;;;0.40;;
74626;SDS011;63132;52.268;5.192;2023-07-20T09:49:13;0.88;;;0.35;;
74626;SDS011;63132;52.268;5.192;2023-07-20T09:51:39;1.88;;;0.47;;
74626;SDS011;63132;52.268;5.192;2023-07-20T09:54:05;1.52;;;0.40;;
74626;SDS011;63132;52.268;5.192;2023-07-20T09:56:31;1.98;;;0.60;;
74626;SDS011;63132;52.268;5.192;2023-07-20T09:58:58;1.65;;;0.55;;
74626;SDS011;63132;52.268;5.192;2023-07-20T10:01:24;2.60;;;0.68;;
74626;SDS011;63132;52.268;5.192;2023-07-20T10:03:53;0.80;;;0.45;;
74626;SDS011;63132;52.268;5.192;2023-07-20T10:06:20;1.98;;;0.90;;
74626;SDS011;63132;52.268;5.192;2023-07-20T10:08:49;2.35;;;0.75;;
74626;SDS011;63132;52.268;5.192;2023-07-20T10:11:17;2.95;;;0.50;;
74626;SDS011;63132;52.268;5.192;2023-07-20T10:13:44;2.35;;;0.63;;
74626;SDS011;63132;52.268;5.192;2023-07-20T10:16:12;3.25;;;0.77;;
74626;SDS011;63132;52.268;5.192;2023-07-20T10:18:49;1.83;;;0.75;;
74626;SDS011;63132;52.268;5.192;2023-07-20T10:21:19;1.65;;;0.60;;
74626;SDS011;63132;52.268;5.192;2023-07-20T10:23:48;2.85;;;0.60;;
74626;SDS011;63132;52.268;5.192;2023-07-20T10:26:14;1.80;;;0.75;;
74626;SDS011;63132;52.268;5.192;2023-07-20T10:28:39;2.95;;;0.77;;
74626;SDS011;63132;52.268;5.192;2023-07-20T10:31:07;4.35;;;0.82;;
74626;SDS011;63132;52.268;5.192;2023-07-20T10:33:34;1.20;;;0.52;;
74626;SDS011;63132;52.268;5.192;2023-07-20T10:36:01;2.38;;;0.68;;
74626;SDS011;63132;52.268;5.192;2023-07-20T10:38:44;2.35;;;0.80;;
74626;SDS011;63132;52.268;5.192;2023-07-20T10:41:19;3.70;;;0.95;;
74626;SDS011;63132;52.268;5.192;2023-07-20T10:43:46;2.17;;;0.77;;
74626;SDS011;63132;52.268;5.192;2023-07-20T10:46:13;3.60;;;0.70;;
74626;SDS011;63132;52.268;5.192;2023-07-20T10:51:27;1.48;;;0.80;;
74626;SDS011;63132;52.268;5.192;2023-07-20T10:53:54;3.47;;;1.05;;
74626;SDS011;63132;52.268;5.192;2023-07-20T10:56:22;1.63;;;0.77;;
74626;SDS011;63132;52.268;5.192;2023-07-20T10:58:48;2.17;;;0.90;;
74626;SDS011;63132;52.268;5.192;2023-07-20T11:01:14;2.08;;;0.70;;
74626;SDS011;63132;52.268;5.192;2023-07-20T11:03:42;1.77;;;0.82;;
74626;SDS011;63132;52.268;5.192;2023-07-20T11:06:41;3.38;;;0.80;;
74626;SDS011;63132;52.268;5.192;2023-07-20T11:09:12;3.70;;;1.00;;
74626;SDS011;63132;52.268;5.192;2023-07-20T11:11:49;0.85;;;0.57;;
74626;SDS011;63132;52.268;5.192;2023-07-20T11:14:23;2.58;;;1.13;;
74626;SDS011;63132;52.268;5.192;2023-07-20T11:16:50;2.15;;;0.75;;
74626;SDS011;63132;52.268;5.192;2023-07-20T11:19:17;5.15;;;1.20;;
74626;SDS011;63132;52.268;5.192;2023-07-20T11:21:53;1.35;;;0.70;;
74626;SDS011;63132;52.268;5.192;2023-07-20T11:24:19;1.77;;;0.80;;
74626;SDS011;63132;52.268;5.192;2023-07-20T11:29:20;1.92;;;0.75;;
74626;SDS011;63132;52.268;5.192;2023-07-20T11:31:47;4.10;;;1.05;;
74626;SDS011;63132;52.268;5.192;2023-07-20T11:34:13;2.45;;;1.10;;
74626;SDS011;63132;52.268;5.192;2023-07-20T11:36:44;3.20;;;1.10;;
74626;SDS011;63132;52.268;5.192;2023-07-20T11:39:11;2.03;;;1.00;;
74626;SDS011;63132;52.268;5.192;2023-07-20T11:41:38;3.45;;;0.90;;
74626;SDS011;63132;52.268;5.192;2023-07-20T11:44:05;1.42;;;0.80;;
74626;SDS011;63132;52.268;5.192;2023-07-20T11:46:32;1.73;;;0.90;;
74626;SDS011;63132;52.268;5.192;2023-07-20T11:48:59;1.65;;;0.85;;
74626;SDS011;63132;52.268;5.192;2023-07-20T11:51:26;1.70;;;1.08;;
74626;SDS011;63132;52.268;5.192;2023-07-20T11:53:52;2.90;;;1.10;;
74626;SDS011;63132;52.268;5.192;2023-07-20T11:56:18;5.63;;;1.40;;
74626;SDS011;63132;52.268;5.192;2023-07-20T11:58:44;2.78;;;1.17;;
74626;SDS011;63132;52.268;5.192;2023-07-20T12:01:11;3.13;;;1.13;;
74626;SDS011;63132;52.268;5.192;2023-07-20T12:03:41;2.22;;;1.00;;
74626;SDS011;63132;52.268;5.192;2023-07-20T12:06:10;3.85;;;1.25;;
74626;SDS011;63132;52.268;5.192;2023-07-20T12:08:39;2.83;;;1.10;;
74626;SDS011;63132;52.268;5.192;2023-07-20T12:11:06;2.13;;;1.10;;
74626;SDS011;63132;52.268;5.192;2023-07-20T12:13:38;2.88;;;1.30;;
74626;SDS011;63132;52.268;5.192;2023-07-20T12:16:10;3.83;;;1.40;;
74626;SDS011;63132;52.268;5.192;2023-07-20T12:18:40;1.70;;;1.17;;
74626;SDS011;63132;52.268;5.192;2023-07-20T12:21:06;3.45;;;1.65;;
74626;SDS011;63132;52.268;5.192;2023-07-20T12:23:40;3.13;;;1.48;;
74626;SDS011;63132;52.268;5.192;2023-07-20T12:26:09;1.83;;;1.20;;
74626;SDS011;63132;52.268;5.192;2023-07-20T12:28:44;2.97;;;1.00;;
74626;SDS011;63132;52.268;5.192;2023-07-20T12:31:09;2.05;;;1.02;;
74626;SDS011;63132;52.268;5.192;2023-07-20T12:33:36;3.70;;;1.33;;
74626;SDS011;63132;52.268;5.192;2023-07-20T12:36:03;7.22;;;1.50;;
74626;SDS011;63132;52.268;5.192;2023-07-20T12:38:29;2.83;;;1.45;;
74626;SDS011;63132;52.268;5.192;2023-07-20T12:40:56;4.43;;;1.20;;
74626;SDS011;63132;52.268;5.192;2023-07-20T12:43:21;4.68;;;1.20;;
74626;SDS011;63132;52.268;5.192;2023-07-20T12:45:46;2.40;;;1.33;;
74626;SDS011;63132;52.268;5.192;2023-07-20T12:48:12;3.22;;;0.95;;
74626;SDS011;63132;52.268;5.192;2023-07-20T12:50:37;4.95;;;1.00;;
74626;SDS011;63132;52.268;5.192;2023-07-20T12:53:03;2.40;;;0.90;;
74626;SDS011;63132;52.268;5.192;2023-07-20T12:55:28;2.47;;;0.95;;
74626;SDS011;63132;52.268;5.192;2023-07-20T12:57:54;3.75;;;0.93;;
74626;SDS011;63132;52.268;5.192;2023-07-20T13:00:20;1.35;;;0.85;;
74626;SDS011;63132;52.268;5.192;2023-07-20T13:02:48;1.20;;;0.60;;
74626;SDS011;63132;52.268;5.192;2023-07-20T13:05:13;2.67;;;0.90;;
74626;SDS011;63132;52.268;5.192;2023-07-20T13:07:40;4.63;;;1.35;;
74626;SDS011;63132;52.268;5.192;2023-07-20T13:10:06;1.77;;;0.88;;
74626;SDS011;63132;52.268;5.192;2023-07-20T13:12:33;1.20;;;0.85;;
74626;SDS011;63132;52.268;5.192;2023-07-20T13:15:00;2.42;;;1.00;;
74626;SDS011;63132;52.268;5.192;2023-07-20T13:17:30;1.92;;;0.90;;
74626;SDS011;63132;52.268;5.192;2023-07-20T13:19:56;5.55;;;1.33;;
74626;SDS011;63132;52.268;5.192;2023-07-20T13:22:21;4.30;;;0.95;;
74626;SDS011;63132;52.268;5.192;2023-07-20T13:24:48;3.05;;;0.68;;
74626;SDS011;63132;52.268;5.192;2023-07-20T13:27:14;1.45;;;0.70;;
74626;SDS011;63132;52.268;5.192;2023-07-20T13:29:40;4.50;;;0.77;;
74626;SDS011;63132;52.268;5.192;2023-07-20T13:32:06;2.00;;;0.90;;
74626;SDS011;63132;52.268;5.192;2023-07-20T13:34:32;3.05;;;1.00;;
74626;SDS011;63132;52.268;5.192;2023-07-20T13:36:57;4.05;;;1.45;;
74626;SDS011;63132;52.268;5.192;2023-07-20T13:39:23;1.98;;;0.85;;
74626;SDS011;63132;52.268;5.192;2023-07-20T13:41:51;1.20;;;0.77;;
74626;SDS011;63132;52.268;5.192;2023-07-20T13:44:16;2.42;;;0.82;;
74626;SDS011;63132;52.268;5.192;2023-07-20T13:46:41;1.67;;;0.65;;
74626;SDS011;63132;52.268;5.192;2023-07-20T13:49:07;3.42;;;0.70;;
74626;SDS011;63132;52.268;5.192;2023-07-20T13:51:32;2.00;;;0.68;;
74626;SDS011;63132;52.268;5.192;2023-07-20T13:53:57;2.53;;;1.02;;
74626;SDS011;63132;52.268;5.192;2023-07-20T13:56:23;3.08;;;1.20;;
74626;SDS011;63132;52.268;5.192;2023-07-20T13:58:49;3.13;;;0.80;;
74626;SDS011;63132;52.268;5.192;2023-07-20T14:01:15;2.20;;;1.17;;
74626;SDS011;63132;52.268;5.192;2023-07-20T14:03:42;1.08;;;0.70;;
74626;SDS011;63132;52.268;5.192;2023-07-20T14:06:08;5.28;;;1.05;;
74626;SDS011;63132;52.268;5.192;2023-07-20T14:08:33;3.45;;;1.00;;
74626;SDS011;63132;52.268;5.192;2023-07-20T14:10:59;3.13;;;0.90;;
74626;SDS011;63132;52.268;5.192;2023-07-20T14:13:24;1.98;;;1.25;;
74626;SDS011;63132;52.268;5.192;2023-07-20T14:15:50;3.05;;;1.15;;
74626;SDS011;63132;52.268;5.192;2023-07-20T14:18:15;2.50;;;1.20;;
74626;SDS011;63132;52.268;5.192;2023-07-20T14:20:41;4.75;;;1.60;;
74626;SDS011;63132;52.268;5.192;2023-07-20T14:23:06;2.55;;;1.10;;
74626;SDS011;63132;52.268;5.192;2023-07-20T14:25:32;1.67;;;0.85;;
74626;SDS011;63132;52.268;5.192;2023-07-20T14:27:58;3.30;;;1.20;;
74626;SDS011;63132;52.268;5.192;2023-07-20T14:30:24;4.18;;;1.00;;
74626;SDS011;63132;52.268;5.192;2023-07-20T14:32:49;5.90;;;1.45;;
74626;SDS011;63132;52.268;5.192;2023-07-20T14:35:15;2.60;;;1.20;;
74626;SDS011;63132;52.268;5.192;2023-07-20T14:37:40;2.65;;;1.08;;
74626;SDS011;63132;52.268;5.192;2023-07-20T14:40:06;7.35;;;1.50;;
74626;SDS011;63132;52.268;5.192;2023-07-20T14:42:32;1.77;;;1.02;;
74626;SDS011;63132;52.268;5.192;2023-07-20T14:44:57;2.42;;;1.02;;
74626;SDS011;63132;52.268;5.192;2023-07-20T14:47:23;1.60;;;0.80;;
74626;SDS011;63132;52.268;5.192;2023-07-20T14:49:48;1.63;;;0.80;;
74626;SDS011;63132;52.268;5.192;2023-07-20T14:52:14;3.03;;;0.90;;
74626;SDS011;63132;52.268;5.192;2023-07-20T14:54:39;4.82;;;1.08;;
74626;SDS011;63132;52.268;5.192;2023-07-20T14:57:05;1.30;;;0.82;;
74626;SDS011;63132;52.268;5.192;2023-07-20T14:59:38;2.70;;;1.10;;
74626;SDS011;63132;52.268;5.192;2023-07-20T15:02:06;1.75;;;1.00;;
74626;SDS011;63132;52.268;5.192;2023-07-20T15:04:32;1.70;;;0.85;;
74626;SDS011;63132;52.268;5.192;2023-07-20T15:06:57;2.40;;;0.85;;
74626;SDS011;63132;52.268;5.192;2023-07-20T15:09:23;1.75;;;0.82;;
74626;SDS011;63132;52.268;5.192;2023-07-20T15:11:48;3.70;;;1.27;;
74626;SDS011;63132;52.268;5.192;2023-07-20T15:14:14;7.22;;;0.98;;
74626;SDS011;63132;52.268;5.192;2023-07-20T15:16:39;1.85;;;0.80;;
74626;SDS011;63132;52.268;5.192;2023-07-20T15:19:05;4.80;;;0.88;;
74626;SDS011;63132;52.268;5.192;2023-07-20T15:21:30;3.20;;;0.90;;
74626;SDS011;63132;52.268;5.192;2023-07-20T15:23:57;3.20;;;1.10;;
74626;SDS011;63132;52.268;5.192;2023-07-20T15:26:23;1.90;;;0.90;;
74626;SDS011;63132;52.268;5.192;2023-07-20T15:28:50;2.97;;;0.80;;
74626;SDS011;63132;52.268;5.192;2023-07-20T15:31:15;2.70;;;1.27;;
74626;SDS011;63132;52.268;5.192;2023-07-20T15:33:40;3.70;;;1.00;;
74626;SDS011;63132;52.268;5.192;2023-07-20T15:36:06;3.47;;;1.15;;
74626;SDS011;63132;52.268;5.192;2023-07-20T15:38:33;2.22;;;1.00;;
74626;SDS011;63132;52.268;5.192;2023-07-20T15:40:58;4.55;;;0.90;;
74626;SDS011;63132;52.268;5.192;2023-07-20T15:43:26;4.20;;;1.08;;
74626;SDS011;63132;52.268;5.192;2023-07-20T15:45:51;4.25;;;0.98;;
74626;SDS011;63132;52.268;5.192;2023-07-20T15:48:26;3.42;;;1.00;;
74626;SDS011;63132;52.268;5.192;2023-07-20T15:50:51;2.75;;;1.00;;
74626;SDS011;63132;52.268;5.192;2023-07-20T15:53:17;1.23;;;0.95;;
74626;SDS011;63132;52.268;5.192;2023-07-20T15:55:42;2.20;;;1.05;;
74626;SDS011;63132;52.268;5.192;2023-07-20T15:58:08;1.83;;;0.80;;
74626;SDS011;63132;52.268;5.192;2023-07-20T16:00:33;5.25;;;1.40;;
74626;SDS011;63132;52.268;5.192;2023-07-20T16:02:58;1.45;;;0.90;;
74626;SDS011;63132;52.268;5.192;2023-07-20T16:05:24;1.60;;;0.77;;
74626;SDS011;63132;52.268;5.192;2023-07-20T16:07:49;1.80;;;1.00;;
74626;SDS011;63132;52.268;5.192;2023-07-20T16:10:17;2.72;;;0.88;;
74626;SDS011;63132;52.268;5.192;2023-07-20T16:12:42;2.80;;;0.80;;
74626;SDS011;63132;52.268;5.192;2023-07-20T16:15:08;3.10;;;0.95;;
74626;SDS011;63132;52.268;5.192;2023-07-20T16:17:34;4.65;;;1.23;;
74626;SDS011;63132;52.268;5.192;2023-07-20T16:19:59;2.50;;;1.20;;
74626;SDS011;63132;52.268;5.192;2023-07-20T16:22:25;2.35;;;1.15;;
74626;SDS011;63132;52.268;5.192;2023-07-20T16:24:50;3.05;;;1.15;;
74626;SDS011;63132;52.268;5.192;2023-07-20T16:27:15;2.80;;;1.08;;
74626;SDS011;63132;52.268;5.192;2023-07-20T16:29:41;1.35;;;0.90;;
74626;SDS011;63132;52.268;5.192;2023-07-20T16:32:06;5.53;;;1.20;;
74626;SDS011;63132;52.268;5.192;2023-07-20T16:34:32;2.30;;;1.10;;
74626;SDS011;63132;52.268;5.192;2023-07-20T16:36:57;3.30;;;1.23;;
74626;SDS011;63132;52.268;5.192;2023-07-20T16:39:24;4.63;;;1.45;;
74626;SDS011;63132;52.268;5.192;2023-07-20T16:41:50;3.10;;;1.30;;
74626;SDS011;63132;52.268;5.192;2023-07-20T16:44:15;2.45;;;1.13;;
74626;SDS011;63132;52.268;5.192;2023-07-20T16:46:42;3.15;;;1.30;;
74626;SDS011;63132;52.268;5.192;2023-07-20T16:49:07;2.78;;;1.20;;
74626;SDS011;63132;52.268;5.192;2023-07-20T16:51:34;3.33;;;0.90;;
74626;SDS011;63132;52.268;5.192;2023-07-20T16:54:00;3.53;;;1.17;;
74626;SDS011;63132;52.268;5.192;2023-07-20T16:56:26;5.60;;;1.27;;
74626;SDS011;63132;52.268;5.192;2023-07-20T16:58:52;2.45;;;1.20;;
74626;SDS011;63132;52.268;5.192;2023-07-20T17:01:17;2.33;;;1.08;;
74626;SDS011;63132;52.268;5.192;2023-07-20T17:03:42;2.17;;;1.15;;
74626;SDS011;63132;52.268;5.192;2023-07-20T17:06:08;1.05;;;0.85;;
74626;SDS011;63132;52.268;5.192;2023-07-20T17:08:33;2.60;;;0.95;;